createdAt,value
2022-11-20T00:01:53.149Z,29.43
2022-11-20T00:04:21.892Z,27.20
2022-11-20T00:06:50.664Z,30.77
2022-11-20T00:09:19.590Z,30.73
2022-11-20T00:11:48.514Z,29.63
2022-11-20T00:14:17.755Z,30.43
2022-11-20T00:16:47.023Z,30.60
2022-11-20T00:19:16.570Z,28.40
2022-11-20T00:21:48.095Z,30.10
2022-11-20T00:24:17.027Z,29.17
2022-11-20T00:26:53.214Z,30.57
2022-11-20T00:29:23.369Z,31.03
2022-11-20T00:31:52.305Z,31.57
2022-11-20T00:34:20.960Z,30.10
2022-11-20T00:36:49.588Z,33.73
2022-11-20T00:39:18.808Z,30.23
2022-11-20T00:41:48.192Z,31.57
2022-11-20T00:44:16.836Z,30.37
2022-11-20T00:46:46.028Z,31.77
2022-11-20T00:49:14.640Z,32.20
2022-11-20T00:51:43.712Z,30.03
2022-11-20T00:54:12.427Z,31.40
2022-11-20T00:56:41.012Z,31.60
2022-11-20T00:59:11.694Z,30.70
2022-11-20T01:01:40.441Z,29.00
2022-11-20T01:04:09.240Z,31.30
2022-11-20T01:06:39.455Z,29.47
2022-11-20T01:09:12.326Z,30.57
2022-11-20T01:11:43.085Z,29.17
2022-11-20T01:14:14.519Z,29.57
2022-11-20T01:16:46.643Z,28.10
2022-11-20T01:19:18.077Z,27.30
2022-11-20T01:21:49.393Z,28.37
2022-11-20T01:24:20.517Z,30.93
2022-11-20T01:26:50.479Z,29.95
2022-11-20T01:29:21.430Z,30.07
2022-11-20T01:31:51.923Z,30.60
2022-11-20T01:34:22.640Z,30.40
2022-11-20T01:36:53.192Z,31.60
2022-11-20T01:39:24.719Z,33.00
2022-11-20T01:42:13.178Z,31.27
2022-11-20T01:44:57.090Z,30.53
2022-11-20T01:47:33.272Z,32.78
2022-11-20T01:50:07.832Z,30.35
2022-11-20T01:52:41.937Z,30.47
2022-11-20T01:55:15.832Z,29.13
2022-11-20T01:57:46.466Z,29.63
2022-11-20T02:00:18.931Z,25.90
2022-11-20T02:02:57.068Z,28.73
2022-11-20T02:05:29.495Z,27.47
2022-11-20T02:08:00.154Z,26.47
2022-11-20T02:10:31.363Z,29.37
2022-11-20T02:13:20.247Z,27.60
2022-11-20T02:15:51.739Z,29.07
2022-11-20T02:18:22.848Z,38.90
2022-11-20T02:20:59.945Z,41.43
2022-11-20T02:23:37.933Z,41.77
2022-11-20T02:26:12.156Z,47.63
2022-11-20T02:28:41.522Z,48.87
2022-11-20T02:31:10.272Z,47.07
2022-11-20T02:33:39.255Z,40.87
2022-11-20T02:36:12.323Z,34.73
2022-11-20T02:38:40.978Z,31.23
2022-11-20T02:41:10.112Z,28.90
2022-11-20T02:43:44.507Z,28.63
2022-11-20T02:46:15.216Z,28.50
2022-11-20T02:48:46.770Z,29.10
2022-11-20T02:51:19.534Z,29.17
2022-11-20T02:53:48.602Z,28.07
2022-11-20T02:56:17.493Z,28.53
2022-11-20T02:58:47.939Z,29.40
2022-11-20T03:01:16.521Z,28.20
2022-11-20T03:03:48.979Z,29.10
2022-11-20T03:06:20.326Z,28.97
2022-11-20T03:08:48.952Z,28.43
2022-11-20T03:11:17.687Z,26.37
2022-11-20T03:13:47.709Z,28.33
2022-11-20T03:16:19.052Z,23.90
2022-11-20T03:18:48.972Z,28.90
2022-11-20T03:21:17.864Z,27.70
2022-11-20T03:23:47.102Z,29.67
2022-11-20T03:26:17.421Z,27.30
2022-11-20T03:28:50.170Z,30.17
2022-11-20T03:31:21.098Z,31.43
2022-11-20T03:33:49.739Z,29.00
2022-11-20T03:36:21.197Z,30.33
2022-11-20T03:38:50.242Z,29.07
2022-11-20T03:41:22.586Z,32.10
2022-11-20T03:43:52.666Z,30.07
2022-11-20T03:46:21.777Z,28.73
2022-11-20T03:48:52.194Z,31.27
2022-11-20T03:51:22.737Z,29.60
2022-11-20T03:53:53.421Z,31.73
2022-11-20T03:56:29.599Z,31.63
2022-11-20T03:58:59.091Z,29.97
2022-11-20T04:01:31.182Z,31.00
2022-11-20T04:04:01.044Z,32.03
2022-11-20T04:06:35.276Z,30.70
2022-11-20T04:11:34.095Z,28.53
2022-11-20T04:14:05.039Z,30.13
2022-11-20T04:16:37.231Z,31.37
2022-11-20T04:19:11.108Z,32.13
2022-11-20T04:21:39.706Z,31.00
2022-11-20T04:24:09.127Z,31.43
2022-11-20T04:26:40.714Z,30.55
2022-11-20T04:29:12.735Z,29.97
2022-11-20T04:31:42.534Z,30.73
2022-11-20T04:34:13.896Z,31.27
2022-11-20T04:36:43.207Z,29.93
2022-11-20T04:39:15.971Z,31.60
2022-11-20T04:41:45.563Z,32.50
2022-11-20T04:44:14.569Z,31.17
2022-11-20T04:47:06.336Z,32.83
2022-11-20T04:49:36.264Z,30.80
2022-11-20T04:52:05.353Z,32.50
2022-11-20T04:54:36.042Z,29.83
2022-11-20T04:57:07.866Z,30.80
2022-11-20T04:59:39.258Z,28.73
2022-11-20T05:02:08.315Z,30.73
2022-11-20T05:04:37.546Z,29.27
2022-11-20T05:07:12.431Z,28.75
2022-11-20T05:09:41.700Z,28.40
2022-11-20T05:12:11.416Z,26.87
2022-11-20T05:14:40.284Z,27.73
2022-11-20T05:17:16.650Z,28.37
2022-11-20T05:19:52.889Z,28.33
2022-11-20T05:22:22.649Z,26.23
2022-11-20T05:24:51.435Z,30.03
2022-11-20T05:27:20.307Z,29.37
2022-11-20T05:29:49.291Z,30.65
2022-11-20T05:32:17.979Z,30.80
2022-11-20T05:34:46.859Z,30.93
2022-11-20T05:37:15.532Z,30.07
2022-11-20T05:39:45.851Z,29.50
2022-11-20T05:42:31.254Z,28.50
2022-11-20T05:45:01.264Z,30.23
2022-11-20T05:47:33.926Z,28.20
2022-11-20T05:50:03.343Z,29.40
2022-11-20T05:52:32.695Z,27.70
2022-11-20T05:55:07.101Z,28.15
2022-11-20T05:57:36.522Z,30.33
2022-11-20T06:00:08.168Z,29.30
2022-11-20T06:02:37.349Z,27.33
2022-11-20T06:05:07.678Z,25.80
2022-11-20T06:07:36.383Z,28.17
2022-11-20T06:10:07.177Z,29.47
2022-11-20T06:12:35.987Z,28.10
2022-11-20T06:15:07.790Z,29.73
2022-11-20T06:17:36.617Z,30.23
2022-11-20T06:20:09.664Z,28.27
2022-11-20T06:22:38.715Z,27.23
2022-11-20T06:25:09.052Z,28.27
2022-11-20T06:27:37.856Z,28.77
2022-11-20T06:30:12.804Z,27.93
2022-11-20T06:32:41.631Z,28.15
2022-11-20T06:35:13.523Z,29.87
2022-11-20T06:37:43.305Z,28.80
2022-11-20T06:40:15.395Z,31.53
2022-11-20T06:42:44.144Z,29.63
2022-11-20T06:45:13.122Z,28.63
2022-11-20T06:47:42.973Z,28.87
2022-11-20T06:50:12.946Z,27.70
2022-11-20T06:52:43.748Z,28.93
2022-11-20T06:55:12.719Z,29.50
2022-11-20T06:57:43.763Z,29.13
2022-11-20T07:00:16.398Z,30.97
2022-11-20T07:02:45.280Z,28.80
2022-11-20T07:05:14.358Z,32.35
2022-11-20T07:07:47.146Z,29.30
2022-11-20T07:10:16.203Z,27.40
2022-11-20T07:12:52.051Z,30.03
2022-11-20T07:15:24.771Z,28.47
2022-11-20T07:17:57.122Z,29.00
2022-11-20T07:20:28.685Z,28.90
2022-11-20T07:22:58.319Z,30.17
2022-11-20T07:25:31.768Z,29.30
2022-11-20T07:28:00.979Z,30.57
2022-11-20T07:30:31.889Z,30.43
2022-11-20T07:33:00.609Z,30.15
2022-11-20T07:35:31.444Z,29.30
2022-11-20T07:38:02.161Z,31.57
2022-11-20T07:40:30.962Z,29.67
2022-11-20T07:42:59.796Z,30.87
2022-11-20T07:45:29.276Z,29.80
2022-11-20T07:47:57.976Z,31.07
2022-11-20T07:50:28.803Z,31.27
2022-11-20T07:53:03.803Z,29.43
2022-11-20T07:55:34.083Z,31.23
2022-11-20T07:58:02.808Z,29.00
2022-11-20T08:00:31.459Z,30.57
2022-11-20T08:03:00.134Z,31.40
2022-11-20T08:05:29.493Z,30.10
2022-11-20T08:07:59.725Z,29.73
2022-11-20T08:10:28.750Z,30.03
2022-11-20T08:13:15.672Z,30.77
2022-11-20T08:15:50.561Z,30.20
2022-11-20T08:18:37.195Z,30.60
2022-11-20T08:21:07.192Z,29.43
2022-11-20T08:23:42.339Z,27.53
2022-11-20T08:26:11.188Z,30.43
2022-11-20T08:28:39.895Z,32.00
2022-11-20T08:31:10.182Z,29.40
2022-11-20T08:33:39.378Z,31.40
2022-11-20T08:36:09.133Z,27.27
2022-11-20T08:38:37.821Z,33.87
2022-11-20T08:41:39.002Z,33.57
2022-11-20T08:44:09.171Z,27.47
2022-11-20T08:46:52.400Z,30.35
2022-11-20T08:49:23.798Z,30.97
2022-11-20T08:51:55.579Z,32.30
2022-11-20T08:54:24.462Z,30.70
2022-11-20T08:56:53.205Z,31.20
2022-11-20T09:02:12.967Z,26.80
2022-11-20T09:04:43.436Z,33.27
2022-11-20T09:07:14.332Z,31.77
2022-11-20T09:09:44.183Z,31.80
2022-11-20T09:12:12.986Z,31.33
2022-11-20T09:14:41.717Z,33.30
2022-11-20T09:17:14.121Z,32.67
2022-11-20T09:19:43.308Z,33.67
2022-11-20T09:22:13.581Z,32.30
2022-11-20T09:24:49.733Z,34.27
2022-11-20T09:27:21.278Z,34.60
2022-11-20T09:29:51.290Z,34.10
2022-11-20T09:32:22.640Z,34.37
2022-11-20T09:34:51.393Z,33.80
2022-11-20T09:37:20.136Z,33.87
2022-11-20T09:39:49.098Z,33.27
2022-11-20T09:42:38.024Z,23.77
2022-11-20T09:45:24.220Z,32.67
2022-11-20T09:48:09.954Z,33.60
2022-11-20T09:50:44.828Z,33.40
2022-11-20T09:53:22.112Z,32.77
2022-11-20T09:55:51.578Z,30.45
2022-11-20T09:58:30.725Z,32.13
2022-11-20T10:01:10.033Z,32.20
2022-11-20T10:03:46.895Z,31.70
2022-11-20T10:06:22.298Z,31.97
2022-11-20T10:09:02.517Z,31.03
2022-11-20T10:11:45.980Z,32.50
2022-11-20T10:14:28.024Z,31.55
2022-11-20T10:17:09.166Z,31.47
2022-11-20T10:19:56.122Z,32.93
2022-11-20T10:22:45.819Z,31.53
2022-11-20T10:25:18.846Z,31.87
2022-11-20T10:28:00.980Z,29.73
2022-11-20T10:30:31.191Z,30.30
2022-11-20T10:33:05.527Z,29.30
2022-11-20T10:35:40.166Z,28.33
2022-11-20T10:38:17.509Z,29.03
2022-11-20T10:40:49.801Z,29.43
2022-11-20T10:43:32.986Z,28.37
2022-11-20T10:46:06.060Z,30.00
2022-11-20T10:48:37.414Z,28.60
2022-11-20T10:51:19.079Z,28.15
2022-11-20T10:54:10.769Z,28.90
2022-11-20T10:56:48.327Z,29.63
2022-11-20T10:59:45.126Z,28.13
2022-11-20T11:02:21.990Z,27.57
2022-11-20T11:04:52.348Z,28.80
2022-11-20T11:07:25.560Z,29.27
2022-11-20T11:09:56.720Z,27.07
2022-11-20T11:12:29.223Z,26.93
2022-11-20T11:14:58.794Z,25.17
2022-11-20T11:17:41.201Z,26.17
2022-11-20T11:20:18.356Z,25.23
2022-11-20T11:22:49.564Z,25.07
2022-11-20T11:25:25.036Z,26.63
2022-11-20T11:28:00.433Z,24.73
2022-11-20T11:30:41.175Z,25.77
2022-11-20T11:33:13.234Z,25.20
2022-11-20T11:35:51.171Z,24.80
2022-11-20T11:38:30.618Z,25.10
2022-11-20T11:40:59.789Z,23.50
2022-11-20T11:43:51.854Z,24.17
2022-11-20T11:46:33.464Z,26.83
2022-11-20T11:49:16.911Z,24.17
2022-11-20T11:52:00.160Z,25.67
2022-11-20T11:54:35.721Z,25.83
2022-11-20T11:57:13.576Z,26.47
2022-11-20T11:59:59.068Z,24.87
2022-11-20T12:02:50.048Z,24.67
2022-11-20T12:05:24.279Z,24.73
2022-11-20T12:07:57.495Z,23.83
2022-11-20T12:10:41.474Z,21.67
2022-11-20T12:13:23.463Z,22.13
2022-11-20T12:15:52.589Z,23.90
2022-11-20T12:18:23.413Z,23.70
2022-11-20T12:21:12.489Z,23.90
2022-11-20T12:23:53.380Z,24.60
2022-11-20T12:26:36.369Z,25.70
2022-11-20T12:29:13.076Z,24.07
2022-11-20T12:32:20.948Z,23.40
2022-11-20T12:35:11.134Z,24.33
2022-11-20T12:37:54.432Z,25.50
2022-11-20T12:40:36.578Z,25.27
2022-11-20T12:43:35.851Z,24.00
2022-11-20T12:46:23.364Z,21.60
2022-11-20T12:49:24.508Z,24.80
2022-11-20T12:52:09.988Z,22.97
2022-11-20T12:55:02.788Z,24.93
2022-11-20T12:57:50.883Z,24.77
2022-11-20T13:00:23.303Z,23.83
2022-11-20T13:03:27.668Z,26.07
2022-11-20T13:06:06.245Z,25.37
2022-11-20T13:08:37.601Z,23.87
2022-11-20T13:11:15.710Z,24.47
2022-11-20T13:14:00.295Z,25.10
2022-11-20T13:19:12.906Z,22.20
2022-11-20T13:21:50.819Z,23.22
2022-11-20T13:24:27.104Z,27.23
2022-11-20T13:27:05.123Z,26.30
2022-11-20T13:29:38.369Z,29.63
2022-11-20T13:32:17.086Z,27.33
2022-11-20T13:34:56.263Z,25.83
2022-11-20T13:37:37.287Z,23.90
2022-11-20T13:40:23.385Z,24.77
2022-11-20T13:43:05.016Z,25.83
2022-11-20T13:45:34.683Z,25.60
2022-11-20T13:48:19.699Z,29.47
2022-11-20T13:50:59.706Z,31.63
2022-11-20T13:54:10.562Z,28.30
2022-11-20T13:56:57.635Z,23.83
2022-11-20T13:59:49.710Z,25.43
2022-11-20T14:02:21.802Z,24.87
2022-11-20T14:04:54.078Z,25.23
2022-11-20T14:07:29.590Z,24.70
2022-11-20T14:09:58.904Z,25.87
2022-11-20T14:12:31.826Z,25.87
2022-11-20T14:15:01.274Z,26.20
2022-11-20T14:17:33.961Z,27.10
2022-11-20T14:20:23.453Z,25.53
2022-11-20T14:22:52.954Z,25.90
2022-11-20T14:25:23.835Z,25.67
2022-11-20T14:27:55.529Z,25.93
2022-11-20T14:30:26.621Z,27.33
2022-11-20T14:33:01.243Z,27.87
2022-11-20T14:35:34.512Z,28.40
2022-11-20T14:38:04.532Z,27.03
2022-11-20T14:40:36.081Z,27.13
2022-11-20T14:43:19.827Z,27.97
2022-11-20T14:45:55.828Z,27.47
2022-11-20T14:48:30.418Z,28.73
2022-11-20T14:50:59.396Z,29.10
2022-11-20T14:53:28.169Z,28.37
2022-11-20T14:56:01.283Z,27.73
2022-11-20T14:58:33.877Z,30.20
2022-11-20T15:01:05.344Z,30.13
2022-11-20T15:03:35.956Z,28.93
2022-11-20T15:06:05.474Z,28.70
2022-11-20T15:08:35.155Z,31.45
2022-11-20T15:11:17.570Z,32.50
2022-11-20T15:13:46.659Z,35.10
2022-11-20T15:16:21.166Z,33.87
2022-11-20T15:18:50.994Z,33.83
2022-11-20T15:21:23.018Z,29.80
2022-11-20T15:23:52.696Z,32.73
2022-11-20T15:26:26.284Z,32.80
2022-11-20T15:28:56.306Z,32.25
2022-11-20T15:31:25.553Z,31.90
2022-11-20T15:33:54.793Z,34.07
2022-11-20T15:36:23.602Z,29.97
2022-11-20T15:38:52.523Z,29.03
2022-11-20T15:41:21.191Z,30.17
2022-11-20T15:43:50.453Z,29.90
2022-11-20T15:46:27.774Z,28.87
2022-11-20T15:49:15.767Z,28.33
2022-11-20T15:51:48.122Z,29.70
2022-11-20T15:54:20.786Z,29.63
2022-11-20T15:56:57.310Z,30.53
2022-11-20T15:59:26.190Z,25.47
2022-11-20T16:01:55.402Z,27.93
2022-11-20T16:04:24.419Z,29.87
2022-11-20T16:06:53.468Z,27.33
2022-11-20T16:09:22.101Z,28.93
2022-11-20T16:11:51.450Z,29.40
2022-11-20T16:14:38.902Z,28.53
2022-11-20T16:17:07.599Z,30.07
2022-11-20T16:19:37.174Z,31.30
2022-11-20T16:22:05.923Z,32.23
2022-11-20T16:24:34.903Z,30.13
2022-11-20T16:27:03.820Z,28.33
2022-11-20T16:29:32.554Z,29.67
2022-11-20T16:32:01.271Z,30.10
2022-11-20T16:34:32.733Z,32.33
2022-11-20T16:37:02.015Z,33.03
2022-11-20T16:39:31.327Z,32.47
2022-11-20T16:42:05.710Z,30.70
2022-11-20T16:44:34.915Z,32.60
2022-11-20T16:47:03.819Z,32.43
2022-11-20T16:49:32.707Z,31.20
2022-11-20T16:52:02.020Z,31.30
2022-11-20T16:54:33.579Z,30.70
2022-11-20T16:57:02.233Z,33.03
2022-11-20T16:59:32.184Z,32.30
2022-11-20T17:02:01.221Z,29.63
2022-11-20T17:04:32.209Z,31.40
2022-11-20T17:07:07.683Z,31.20
2022-11-20T17:09:37.140Z,28.33
2022-11-20T17:12:07.470Z,31.77
2022-11-20T17:14:36.309Z,32.33
2022-11-20T17:17:05.859Z,32.20
2022-11-20T17:19:34.777Z,32.60
2022-11-20T17:22:04.872Z,32.73
2022-11-20T17:24:34.662Z,33.70
2022-11-20T17:27:04.225Z,31.70
2022-11-20T17:29:37.849Z,34.43
2022-11-20T17:32:11.886Z,34.23
2022-11-20T17:34:41.130Z,31.93
2022-11-20T17:37:10.958Z,31.43
2022-11-20T17:39:40.425Z,33.55
2022-11-20T17:42:32.969Z,33.55
2022-11-20T17:45:02.251Z,32.30
2022-11-20T17:47:42.647Z,35.33
2022-11-20T17:50:12.492Z,35.30
2022-11-20T17:52:45.268Z,31.70
2022-11-20T17:55:14.331Z,29.50
2022-11-20T17:57:52.906Z,32.07
2022-11-20T18:00:22.367Z,30.03
2022-11-20T18:02:51.284Z,30.53
2022-11-20T18:05:21.947Z,31.20
2022-11-20T18:07:54.117Z,31.57
2022-11-20T18:10:23.653Z,32.10
2022-11-20T18:12:54.087Z,31.70
2022-11-20T18:15:23.805Z,32.93
2022-11-20T18:17:52.761Z,30.40
2022-11-20T18:20:32.007Z,35.77
2022-11-20T18:23:02.849Z,37.40
2022-11-20T18:25:33.957Z,42.30
2022-11-20T18:28:04.830Z,38.60
2022-11-20T18:30:36.490Z,39.17
2022-11-20T18:33:06.541Z,41.23
2022-11-20T18:35:35.825Z,46.50
2022-11-20T18:38:04.923Z,42.00
2022-11-20T18:40:35.856Z,41.65
2022-11-20T18:43:24.220Z,36.93
2022-11-20T18:46:05.479Z,35.70
2022-11-20T18:48:36.314Z,36.63
2022-11-20T18:51:08.284Z,36.75
2022-11-20T18:53:40.840Z,37.57
2022-11-20T18:56:20.003Z,37.87
2022-11-20T18:58:49.712Z,37.13
2022-11-20T19:01:21.721Z,38.13
2022-11-20T19:03:52.400Z,35.50
2022-11-20T19:06:21.796Z,39.17
2022-11-20T19:08:51.262Z,40.87
2022-11-20T19:11:20.147Z,41.30
2022-11-20T19:13:59.689Z,37.97
2022-11-20T19:16:38.607Z,35.90
2022-11-20T19:19:07.780Z,34.27
2022-11-20T19:21:37.983Z,33.30
2022-11-20T19:24:08.997Z,37.37
2022-11-20T19:26:45.858Z,37.37
2022-11-20T19:29:17.250Z,35.73
2022-11-20T19:31:48.422Z,34.10
2022-11-20T19:34:17.437Z,38.13
2022-11-20T19:36:46.710Z,36.33
2022-11-20T19:39:16.014Z,33.93
2022-11-20T19:41:45.012Z,40.17
2022-11-20T19:44:17.757Z,37.90
2022-11-20T19:46:47.459Z,42.07
2022-11-20T19:49:16.857Z,38.37
2022-11-20T19:51:47.667Z,40.57
2022-11-20T19:54:18.974Z,42.35
2022-11-20T19:56:49.239Z,44.07
2022-11-20T19:59:18.043Z,42.90
2022-11-20T20:01:47.044Z,47.70
2022-11-20T20:04:15.857Z,44.90
2022-11-20T20:06:44.752Z,44.57
2022-11-20T20:09:18.849Z,43.83
2022-11-20T20:14:21.949Z,40.37
2022-11-20T20:16:51.548Z,41.50
2022-11-20T20:19:23.826Z,45.23
2022-11-20T20:21:54.699Z,39.37
2022-11-20T20:24:28.126Z,42.37
2022-11-20T20:27:00.489Z,40.40
2022-11-20T20:29:29.442Z,42.13
2022-11-20T20:32:00.342Z,43.20
2022-11-20T20:34:31.718Z,43.87
2022-11-20T20:37:03.958Z,42.60
2022-11-20T20:39:34.497Z,40.97
2022-11-20T20:42:06.747Z,43.90
2022-11-20T20:44:57.173Z,45.77
2022-11-20T20:47:31.171Z,44.80
2022-11-20T20:50:00.415Z,44.03
2022-11-20T20:52:29.404Z,45.27
2022-11-20T20:55:00.839Z,44.47
2022-11-20T20:57:29.986Z,44.73
2022-11-20T20:59:59.798Z,42.30
2022-11-20T21:02:28.976Z,42.37
2022-11-20T21:04:59.597Z,53.97
2022-11-20T21:07:29.836Z,48.37
2022-11-20T21:09:59.017Z,47.37
2022-11-20T21:12:29.999Z,44.30
2022-11-20T21:14:59.521Z,45.10
2022-11-20T21:17:29.400Z,46.87
2022-11-20T21:20:00.128Z,45.70
2022-11-20T21:22:36.221Z,49.00
2022-11-20T21:25:09.983Z,47.77
2022-11-20T21:28:01.163Z,48.90
2022-11-20T21:30:30.623Z,46.70
2022-11-20T21:33:02.607Z,46.03
2022-11-20T21:35:35.123Z,45.97
2022-11-20T21:38:05.096Z,47.60
2022-11-20T21:40:36.854Z,46.50
2022-11-20T21:43:05.885Z,45.80
2022-11-20T21:45:35.760Z,46.23
2022-11-20T21:48:06.300Z,44.63
2022-11-20T21:50:38.645Z,45.20
2022-11-20T21:53:07.552Z,43.63
2022-11-20T21:55:36.581Z,46.27
2022-11-20T21:58:05.631Z,43.93
2022-11-20T22:00:36.159Z,44.43
2022-11-20T22:03:06.107Z,43.53
2022-11-20T22:05:35.563Z,43.23
2022-11-20T22:08:05.169Z,41.30
2022-11-20T22:10:36.420Z,44.07
2022-11-20T22:13:25.423Z,43.97
2022-11-20T22:16:02.492Z,43.10
2022-11-20T22:18:31.694Z,42.77
2022-11-20T22:21:06.000Z,44.20
2022-11-20T22:23:38.558Z,43.13
2022-11-20T22:26:09.714Z,43.80
2022-11-20T22:28:39.308Z,45.83
2022-11-20T22:31:12.016Z,43.03
2022-11-20T22:33:41.398Z,47.20
2022-11-20T22:36:13.069Z,54.67
2022-11-20T22:38:42.971Z,48.70
2022-11-20T22:41:13.827Z,47.50
2022-11-20T22:43:47.294Z,48.17
2022-11-20T22:46:18.595Z,49.37
2022-11-20T22:48:52.820Z,44.43
2022-11-20T22:53:55.420Z,45.13
2022-11-20T22:56:24.774Z,46.23
2022-11-20T22:58:56.270Z,44.90
2022-11-20T23:01:30.070Z,44.35
2022-11-20T23:04:05.523Z,44.73
2022-11-20T23:06:36.665Z,45.97
2022-11-20T23:09:08.344Z,45.07
2022-11-20T23:11:37.364Z,44.70
2022-11-20T23:14:10.384Z,46.27
2022-11-20T23:16:42.938Z,44.57
2022-11-20T23:19:14.217Z,47.33
2022-11-20T23:21:43.502Z,46.37
2022-11-20T23:24:12.363Z,46.17
2022-11-20T23:26:44.742Z,47.45
2022-11-20T23:29:14.874Z,47.80
2022-11-20T23:31:47.736Z,46.83
2022-11-20T23:34:19.035Z,49.57
2022-11-20T23:36:49.875Z,46.10
2022-11-20T23:39:18.734Z,47.03
2022-11-20T23:41:47.841Z,52.17
2022-11-20T23:44:16.901Z,50.10
2022-11-20T23:46:50.653Z,52.40
2022-11-20T23:49:20.190Z,50.00
2022-11-20T23:51:48.898Z,51.53
2022-11-20T23:54:21.324Z,49.87
2022-11-20T23:56:50.406Z,49.83
2022-11-20T23:59:19.527Z,50.40
